createdAt,value
2022-11-29T00:00:49.194Z,8.25
2022-11-29T00:03:15.762Z,8.24
2022-11-29T00:05:42.263Z,8.24
2022-11-29T00:08:08.730Z,8.25
2022-11-29T00:10:38.196Z,8.26
2022-11-29T00:13:05.152Z,8.25
2022-11-29T00:15:36.726Z,8.24
2022-11-29T00:18:03.871Z,8.24
2022-11-29T00:20:30.393Z,8.24
2022-11-29T00:22:56.970Z,8.25
2022-11-29T00:25:23.505Z,8.26
2022-11-29T00:27:51.426Z,8.28
2022-11-29T00:30:19.049Z,8.28
2022-11-29T00:32:45.532Z,8.31
2022-11-29T00:35:12.287Z,8.34
2022-11-29T00:37:38.951Z,8.33
2022-11-29T00:40:06.233Z,8.33
2022-11-29T00:42:32.699Z,8.34
2022-11-29T00:44:59.128Z,8.34
2022-11-29T00:47:25.499Z,8.35
2022-11-29T00:49:52.066Z,8.35
2022-11-29T00:52:18.575Z,8.33
2022-11-29T00:54:45.300Z,8.32
2022-11-29T00:57:11.877Z,8.31
2022-11-29T00:59:38.438Z,8.32
2022-11-29T01:02:04.890Z,8.28
2022-11-29T01:04:31.368Z,8.25
2022-11-29T01:06:57.839Z,8.25
2022-11-29T01:09:24.288Z,8.23
2022-11-29T01:11:50.943Z,8.24
2022-11-29T01:14:17.397Z,8.25
2022-11-29T01:16:43.853Z,8.28
2022-11-29T01:19:10.590Z,8.28
2022-11-29T01:21:37.501Z,8.26
2022-11-29T01:24:04.160Z,8.24
2022-11-29T01:26:31.536Z,8.25
2022-11-29T01:28:58.782Z,8.25
2022-11-29T01:31:36.210Z,8.28
2022-11-29T01:34:04.821Z,8.28
2022-11-29T01:36:33.521Z,8.25
2022-11-29T01:39:02.111Z,8.24
2022-11-29T01:41:31.922Z,8.26
2022-11-29T01:44:00.487Z,8.27
2022-11-29T01:46:33.056Z,8.25
2022-11-29T01:49:06.248Z,8.21
2022-11-29T01:51:34.226Z,8.25
2022-11-29T01:54:00.826Z,8.21
2022-11-29T01:56:29.512Z,8.21
2022-11-29T01:58:56.238Z,8.21
2022-11-29T02:01:23.284Z,8.20
2022-11-29T02:03:49.878Z,8.21
2022-11-29T02:06:16.474Z,8.23
2022-11-29T02:08:43.779Z,8.24
2022-11-29T02:11:19.408Z,8.22
2022-11-29T02:13:57.945Z,8.22
2022-11-29T02:16:34.461Z,8.19
2022-11-29T02:19:38.152Z,8.20
2022-11-29T02:22:20.743Z,8.21
2022-11-29T02:25:24.363Z,8.21
2022-11-29T02:28:19.650Z,8.19
2022-11-29T02:31:04.545Z,8.21
2022-11-29T02:33:46.171Z,8.18
2022-11-29T02:36:18.784Z,8.15
2022-11-29T02:39:20.146Z,8.17
2022-11-29T02:42:28.047Z,8.16
2022-11-29T02:45:14.460Z,8.13
2022-11-29T02:48:08.361Z,8.14
2022-11-29T02:50:42.219Z,8.14
2022-11-29T02:53:44.916Z,8.16
2022-11-29T02:56:14.230Z,8.14
2022-11-29T02:58:54.058Z,8.14
2022-11-29T03:01:34.742Z,8.12
2022-11-29T03:04:23.303Z,8.12
2022-11-29T03:07:20.923Z,8.12
2022-11-29T03:10:02.735Z,8.09
2022-11-29T03:12:37.941Z,8.09
2022-11-29T03:15:22.566Z,8.07
2022-11-29T03:18:23.546Z,8.05
2022-11-29T03:20:55.971Z,8.02
2022-11-29T03:23:35.902Z,8.04
2022-11-29T03:26:17.410Z,8.04
2022-11-29T03:29:01.167Z,8.05
2022-11-29T03:31:33.497Z,8.06
2022-11-29T03:34:12.309Z,8.06
2022-11-29T03:37:06.100Z,8.03
2022-11-29T03:39:44.470Z,8.02
2022-11-29T03:42:25.164Z,8.00
2022-11-29T03:45:07.732Z,7.99
2022-11-29T03:47:41.959Z,8.00
2022-11-29T03:50:18.980Z,7.96
2022-11-29T03:52:54.084Z,7.95
2022-11-29T03:55:46.094Z,7.92
2022-11-29T03:58:15.301Z,7.92
2022-11-29T04:00:47.638Z,7.90
2022-11-29T04:03:35.419Z,7.88
2022-11-29T04:06:39.208Z,7.89
2022-11-29T04:09:56.268Z,7.90
2022-11-29T04:12:47.472Z,7.91
2022-11-29T04:15:34.032Z,7.92
2022-11-29T04:18:24.393Z,7.92
2022-11-29T04:21:17.927Z,7.92
2022-11-29T04:24:02.503Z,7.88
2022-11-29T04:26:37.997Z,7.82
2022-11-29T04:29:26.222Z,7.84
2022-11-29T04:32:02.558Z,7.84
2022-11-29T04:34:46.394Z,7.85
2022-11-29T04:37:25.938Z,7.87
2022-11-29T04:40:24.022Z,7.85
2022-11-29T04:43:33.495Z,7.90
2022-11-29T04:46:11.379Z,7.89
2022-11-29T04:48:49.451Z,7.89
2022-11-29T04:51:25.920Z,7.84
2022-11-29T04:54:20.292Z,7.83
2022-11-29T04:56:48.701Z,7.85
2022-11-29T04:59:34.390Z,7.84
2022-11-29T05:02:25.321Z,7.82
2022-11-29T05:05:07.586Z,7.83
2022-11-29T05:07:52.848Z,7.80
2022-11-29T05:10:25.394Z,7.80
2022-11-29T05:13:19.441Z,7.80
2022-11-29T05:16:13.755Z,7.80
2022-11-29T05:19:27.719Z,7.82
2022-11-29T05:22:15.812Z,7.83
2022-11-29T05:25:10.685Z,7.81
2022-11-29T05:27:51.375Z,7.77
2022-11-29T05:30:23.521Z,7.79
2022-11-29T05:33:20.665Z,7.76
2022-11-29T05:36:05.517Z,7.79
2022-11-29T05:39:10.605Z,7.78
2022-11-29T05:42:10.697Z,7.79
2022-11-29T05:44:46.388Z,7.79
2022-11-29T05:47:32.283Z,7.80
2022-11-29T05:50:18.250Z,7.80
2022-11-29T05:52:59.267Z,7.81
2022-11-29T05:55:51.656Z,7.80
2022-11-29T05:58:30.539Z,7.78
2022-11-29T06:01:13.551Z,7.77
2022-11-29T06:03:56.922Z,7.77
2022-11-29T06:06:34.613Z,7.81
2022-11-29T06:09:28.893Z,7.82
2022-11-29T06:12:02.428Z,7.78
2022-11-29T06:14:34.520Z,7.78
2022-11-29T06:17:16.071Z,7.73
2022-11-29T06:19:53.063Z,7.76
2022-11-29T06:22:25.539Z,7.76
2022-11-29T06:25:17.132Z,7.76
2022-11-29T06:28:04.648Z,7.78
2022-11-29T06:30:52.189Z,7.79
2022-11-29T06:33:28.419Z,7.80
2022-11-29T06:36:15.972Z,7.78
2022-11-29T06:38:42.651Z,7.70
2022-11-29T06:41:17.034Z,7.69
2022-11-29T06:43:43.707Z,7.69
2022-11-29T06:46:17.980Z,7.69
2022-11-29T06:49:02.359Z,7.72
2022-11-29T06:51:40.240Z,7.71
2022-11-29T06:54:06.653Z,7.72
2022-11-29T06:56:59.875Z,7.70
2022-11-29T07:00:03.721Z,7.67
2022-11-29T07:03:08.182Z,7.69
2022-11-29T07:05:35.624Z,7.67
2022-11-29T07:08:08.724Z,7.67
2022-11-29T07:10:37.480Z,7.66
2022-11-29T07:13:04.702Z,7.67
2022-11-29T07:15:31.699Z,7.70
2022-11-29T07:18:30.706Z,7.71
2022-11-29T07:21:19.504Z,7.71
2022-11-29T07:24:00.979Z,7.71
2022-11-29T07:26:45.370Z,7.68
2022-11-29T07:29:37.456Z,7.67
2022-11-29T07:32:19.099Z,7.63
2022-11-29T07:35:07.703Z,7.61
2022-11-29T07:38:02.620Z,7.57
2022-11-29T07:40:37.934Z,7.63
2022-11-29T07:43:23.333Z,7.66
2022-11-29T07:45:50.330Z,7.67
2022-11-29T07:48:17.591Z,7.67
2022-11-29T07:50:47.100Z,7.67
2022-11-29T07:53:19.120Z,7.69
2022-11-29T07:55:46.744Z,7.70
2022-11-29T07:58:14.815Z,7.69
2022-11-29T08:00:42.614Z,7.64
2022-11-29T08:03:09.639Z,7.64
2022-11-29T08:05:40.342Z,7.67
2022-11-29T08:08:07.270Z,7.63
2022-11-29T08:10:34.510Z,7.63
2022-11-29T08:13:00.960Z,7.61
2022-11-29T08:15:27.442Z,7.60
2022-11-29T08:17:53.839Z,7.60
2022-11-29T08:20:20.517Z,7.57
2022-11-29T08:22:58.300Z,7.61
2022-11-29T08:25:26.001Z,7.63
2022-11-29T08:27:52.455Z,7.67
2022-11-29T08:30:22.135Z,7.69
2022-11-29T08:32:52.091Z,7.69
2022-11-29T08:35:20.190Z,7.67
2022-11-29T08:37:46.873Z,7.67
2022-11-29T08:40:13.769Z,7.70
2022-11-29T08:42:40.222Z,7.73
2022-11-29T08:45:07.845Z,7.77
2022-11-29T08:47:36.968Z,7.81
2022-11-29T08:50:12.242Z,7.87
2022-11-29T08:53:03.530Z,7.88
2022-11-29T08:55:43.172Z,7.94
2022-11-29T08:58:26.963Z,7.96
2022-11-29T09:00:53.646Z,7.96
2022-11-29T09:03:38.975Z,7.97
2022-11-29T09:06:12.693Z,8.04
2022-11-29T09:08:41.043Z,8.09
2022-11-29T09:11:14.936Z,8.04
2022-11-29T09:13:46.983Z,8.01
2022-11-29T09:16:17.950Z,8.04
2022-11-29T09:18:51.283Z,8.06
2022-11-29T09:21:18.790Z,8.08
2022-11-29T09:23:45.475Z,8.16
2022-11-29T09:26:19.759Z,8.23
2022-11-29T09:28:46.784Z,8.21
2022-11-29T09:31:15.182Z,8.27
2022-11-29T09:33:42.321Z,8.32
2022-11-29T09:36:10.696Z,8.34
2022-11-29T09:38:38.352Z,8.30
2022-11-29T09:41:47.078Z,8.37
2022-11-29T09:44:24.755Z,8.43
2022-11-29T09:47:18.004Z,8.47
2022-11-29T09:50:12.371Z,8.50
2022-11-29T09:52:57.592Z,8.51
2022-11-29T09:55:26.889Z,8.56
2022-11-29T09:57:56.615Z,8.56
2022-11-29T10:00:23.159Z,8.62
2022-11-29T10:03:03.965Z,8.70
2022-11-29T10:05:51.733Z,8.77
2022-11-29T10:08:25.687Z,8.74
2022-11-29T10:11:01.485Z,8.75
2022-11-29T10:13:34.183Z,8.82
2022-11-29T10:16:25.238Z,8.85
2022-11-29T10:18:56.852Z,8.82
2022-11-29T10:21:32.430Z,8.85
2022-11-29T10:24:04.419Z,8.84
2022-11-29T10:26:35.145Z,8.84
2022-11-29T10:29:02.327Z,8.86
2022-11-29T10:31:34.694Z,8.91
2022-11-29T10:34:07.902Z,9.00
2022-11-29T10:36:41.673Z,8.96
2022-11-29T10:39:39.841Z,8.93
2022-11-29T10:42:38.086Z,9.04
2022-11-29T10:45:14.790Z,9.17
2022-11-29T10:47:41.374Z,9.13
2022-11-29T10:50:13.137Z,9.13
2022-11-29T10:52:39.590Z,9.11
2022-11-29T10:55:12.410Z,9.10
2022-11-29T10:58:13.717Z,9.13
2022-11-29T11:00:51.586Z,8.96
2022-11-29T11:03:52.803Z,9.01
2022-11-29T11:06:28.307Z,9.11
2022-11-29T11:08:57.322Z,9.11
2022-11-29T11:11:33.331Z,9.16
2022-11-29T11:14:16.892Z,9.26
2022-11-29T11:16:43.398Z,9.34
2022-11-29T11:19:29.770Z,9.35
2022-11-29T11:21:58.640Z,9.34
2022-11-29T11:24:27.145Z,9.28
2022-11-29T11:26:53.937Z,9.18
2022-11-29T11:29:25.922Z,9.25
2022-11-29T11:31:58.691Z,9.34
2022-11-29T11:34:37.238Z,9.55
2022-11-29T11:37:15.820Z,9.71
2022-11-29T11:39:43.803Z,9.70
2022-11-29T11:42:31.518Z,9.79
2022-11-29T11:44:58.129Z,9.77
2022-11-29T11:47:29.838Z,9.76
2022-11-29T11:50:02.329Z,9.71
2022-11-29T11:52:49.865Z,9.72
2022-11-29T11:55:53.797Z,9.55
2022-11-29T11:58:27.366Z,9.33
2022-11-29T12:01:21.507Z,9.26
2022-11-29T12:03:59.129Z,9.27
2022-11-29T12:06:44.378Z,9.45
2022-11-29T12:09:16.451Z,9.84
2022-11-29T12:11:55.208Z,9.79
2022-11-29T12:14:31.185Z,9.79
2022-11-29T12:17:09.482Z,9.66
2022-11-29T12:19:46.586Z,9.65
2022-11-29T12:22:19.001Z,9.72
2022-11-29T12:24:55.301Z,9.88
2022-11-29T12:27:22.004Z,9.97
2022-11-29T12:29:48.571Z,10.02
2022-11-29T12:32:38.069Z,10.02
2022-11-29T12:35:38.388Z,9.98
2022-11-29T12:38:10.784Z,9.88
2022-11-29T12:41:02.606Z,9.88
2022-11-29T12:44:03.879Z,9.97
2022-11-29T12:46:31.155Z,10.00
2022-11-29T12:49:07.055Z,10.08
2022-11-29T12:51:59.235Z,10.14
2022-11-29T12:54:57.187Z,10.08
2022-11-29T12:57:42.328Z,10.04
2022-11-29T13:00:19.737Z,9.93
2022-11-29T13:03:07.570Z,9.80
2022-11-29T13:05:37.274Z,9.79
2022-11-29T13:08:32.895Z,9.80
2022-11-29T13:11:21.045Z,9.80
2022-11-29T13:14:34.569Z,9.82
2022-11-29T13:16:56.794Z,9.85
2022-11-29T13:19:23.163Z,9.85
2022-11-29T13:22:02.350Z,9.88
2022-11-29T13:24:42.534Z,9.92
2022-11-29T13:27:13.312Z,9.96
2022-11-29T13:29:40.256Z,9.97
2022-11-29T13:32:14.432Z,9.94
2022-11-29T13:34:48.284Z,9.95
2022-11-29T13:37:30.227Z,9.95
2022-11-29T13:40:28.626Z,9.90
2022-11-29T13:43:06.946Z,9.93
2022-11-29T13:45:58.645Z,9.91
2022-11-29T13:48:28.338Z,9.89
2022-11-29T13:50:56.691Z,9.86
2022-11-29T13:53:25.530Z,9.85
2022-11-29T13:56:02.418Z,9.84
2022-11-29T13:58:34.083Z,9.77
2022-11-29T14:01:05.663Z,9.71
2022-11-29T14:03:38.711Z,9.65
2022-11-29T14:06:13.173Z,9.60
2022-11-29T14:09:17.958Z,9.59
2022-11-29T14:11:52.952Z,9.58
2022-11-29T14:14:31.252Z,9.55
2022-11-29T14:17:34.233Z,9.48
2022-11-29T14:20:22.238Z,9.38
2022-11-29T14:23:30.952Z,9.30
2022-11-29T14:25:57.561Z,9.25
2022-11-29T14:28:24.095Z,9.18
2022-11-29T14:30:55.527Z,9.07
2022-11-29T14:33:42.153Z,8.96
2022-11-29T14:36:14.750Z,8.83
2022-11-29T14:39:02.876Z,8.72
2022-11-29T14:41:50.154Z,8.59
2022-11-29T14:44:24.623Z,8.46
2022-11-29T14:47:18.704Z,8.39
2022-11-29T14:49:46.131Z,8.32
2022-11-29T14:52:30.684Z,8.30
2022-11-29T14:55:06.762Z,8.24
2022-11-29T14:58:13.896Z,8.14
2022-11-29T15:00:56.771Z,8.07
2022-11-29T15:03:38.042Z,8.00
2022-11-29T15:06:13.100Z,7.92
2022-11-29T15:08:58.007Z,7.84
2022-11-29T15:11:51.253Z,7.76
2022-11-29T15:14:40.007Z,7.74
2022-11-29T15:17:37.949Z,7.67
2022-11-29T15:20:46.601Z,7.54
2022-11-29T15:23:18.710Z,7.47
2022-11-29T15:26:07.112Z,7.38
2022-11-29T15:28:36.970Z,7.29
2022-11-29T15:31:12.395Z,7.22
2022-11-29T15:33:44.908Z,7.14
2022-11-29T15:36:17.899Z,7.07
2022-11-29T15:38:47.721Z,6.99
2022-11-29T15:41:31.549Z,6.91
2022-11-29T15:44:04.616Z,6.89
2022-11-29T15:46:34.619Z,6.80
2022-11-29T15:49:27.760Z,6.78
2022-11-29T15:51:58.853Z,6.78
2022-11-29T15:54:31.144Z,6.83
2022-11-29T15:57:04.010Z,6.92
2022-11-29T15:59:37.205Z,7.01
2022-11-29T16:02:27.821Z,7.13
2022-11-29T16:05:14.932Z,7.19
2022-11-29T16:07:43.510Z,7.21
2022-11-29T16:10:19.704Z,7.26
2022-11-29T16:13:06.272Z,7.30
2022-11-29T16:15:38.532Z,7.31
2022-11-29T16:18:18.789Z,7.31
2022-11-29T16:21:01.689Z,7.36
2022-11-29T16:23:42.141Z,7.41
2022-11-29T16:26:19.614Z,7.40
2022-11-29T16:28:48.681Z,7.46
2022-11-29T16:31:18.005Z,7.45
2022-11-29T16:33:47.369Z,7.50
2022-11-29T16:36:22.147Z,7.50
2022-11-29T16:38:54.412Z,7.49
2022-11-29T16:41:32.251Z,7.53
2022-11-29T16:43:59.730Z,7.59
2022-11-29T16:46:30.167Z,7.60
2022-11-29T16:48:58.635Z,7.62
2022-11-29T16:51:26.989Z,7.64
2022-11-29T16:53:55.736Z,7.68
2022-11-29T16:56:33.512Z,7.69
2022-11-29T16:59:25.050Z,7.67
2022-11-29T17:01:49.387Z,7.68
2022-11-29T17:04:24.372Z,7.67
2022-11-29T17:06:53.390Z,7.68
2022-11-29T17:09:26.817Z,7.68
2022-11-29T17:11:55.116Z,7.66
2022-11-29T17:14:21.745Z,7.65
2022-11-29T17:16:49.617Z,7.67
2022-11-29T17:19:16.276Z,7.68
2022-11-29T17:21:42.920Z,7.68
2022-11-29T17:24:12.930Z,7.70
2022-11-29T17:26:41.085Z,7.71
2022-11-29T17:29:09.216Z,7.72
2022-11-29T17:31:35.809Z,7.72
2022-11-29T17:34:02.834Z,7.75
2022-11-29T17:36:29.476Z,7.74
2022-11-29T17:38:56.343Z,7.74
2022-11-29T17:41:24.511Z,7.76
2022-11-29T17:43:52.893Z,7.77
2022-11-29T17:46:24.977Z,7.73
2022-11-29T17:48:52.370Z,7.77
2022-11-29T17:51:50.439Z,7.78
2022-11-29T17:54:09.257Z,7.79
2022-11-29T17:56:35.772Z,7.78
2022-11-29T17:59:04.007Z,7.79
2022-11-29T18:01:35.648Z,7.78
2022-11-29T18:04:04.231Z,7.79
2022-11-29T18:06:37.605Z,7.81
2022-11-29T18:09:05.765Z,7.82
2022-11-29T18:11:44.959Z,7.85
2022-11-29T18:14:16.726Z,7.86
2022-11-29T18:16:45.312Z,7.86
2022-11-29T18:19:14.535Z,7.84
2022-11-29T18:21:41.113Z,7.87
2022-11-29T18:24:08.469Z,7.87
2022-11-29T18:26:36.444Z,7.86
2022-11-29T18:29:04.156Z,7.87
2022-11-29T18:31:33.051Z,7.89
2022-11-29T18:34:02.150Z,7.90
2022-11-29T18:36:33.471Z,7.89
2022-11-29T18:39:08.706Z,7.90
2022-11-29T18:41:35.445Z,7.89
2022-11-29T18:44:07.351Z,7.88
2022-11-29T18:46:36.736Z,7.91
2022-11-29T18:49:06.052Z,7.91
2022-11-29T18:51:34.097Z,7.89
2022-11-29T18:54:01.045Z,7.90
2022-11-29T18:56:30.794Z,7.90
2022-11-29T18:59:10.120Z,7.91
2022-11-29T19:01:40.884Z,7.91
2022-11-29T19:04:09.165Z,7.92
2022-11-29T19:06:39.715Z,7.89
2022-11-29T19:09:11.357Z,7.91
2022-11-29T19:11:38.514Z,7.89
2022-11-29T19:14:11.447Z,7.89
2022-11-29T19:16:40.715Z,7.90
2022-11-29T19:19:07.282Z,7.91
2022-11-29T19:21:37.056Z,7.89
2022-11-29T19:24:07.475Z,7.87
2022-11-29T19:26:34.582Z,7.90
2022-11-29T19:29:01.790Z,7.90
2022-11-29T19:31:28.982Z,7.90
2022-11-29T19:33:56.343Z,7.92
2022-11-29T19:36:25.371Z,7.93
2022-11-29T19:38:54.106Z,7.94
2022-11-29T19:41:26.353Z,7.92
2022-11-29T19:43:55.231Z,7.91
2022-11-29T19:46:24.156Z,7.91
2022-11-29T19:48:54.880Z,7.91
2022-11-29T19:51:22.728Z,7.93
2022-11-29T19:53:53.056Z,7.92
2022-11-29T19:56:20.510Z,7.91
2022-11-29T19:58:48.156Z,7.91
2022-11-29T20:01:24.424Z,7.93
2022-11-29T20:03:52.251Z,7.93
2022-11-29T20:06:19.202Z,7.93
2022-11-29T20:08:46.190Z,7.93
2022-11-29T20:11:21.382Z,7.93
2022-11-29T20:13:54.052Z,7.95
2022-11-29T20:16:22.136Z,7.92
2022-11-29T20:18:51.229Z,7.92
2022-11-29T20:21:27.858Z,7.92
2022-11-29T20:23:58.746Z,7.95
2022-11-29T20:26:25.851Z,7.95
2022-11-29T20:28:52.566Z,7.94
2022-11-29T20:31:22.674Z,7.93
2022-11-29T20:33:51.718Z,7.93
2022-11-29T20:36:30.287Z,7.95
2022-11-29T20:39:21.444Z,7.91
2022-11-29T20:41:50.954Z,7.92
2022-11-29T20:44:35.768Z,7.93
2022-11-29T20:47:11.559Z,7.92
2022-11-29T20:49:38.186Z,7.93
2022-11-29T20:52:09.363Z,7.93
2022-11-29T20:54:35.897Z,7.93
2022-11-29T20:57:02.311Z,7.94
2022-11-29T20:59:28.778Z,7.96
2022-11-29T21:01:57.357Z,7.93
2022-11-29T21:04:23.905Z,7.95
2022-11-29T21:06:50.407Z,7.93
2022-11-29T21:09:16.918Z,7.93
2022-11-29T21:11:43.552Z,7.93
2022-11-29T21:14:10.347Z,7.93
2022-11-29T21:16:37.035Z,7.95
2022-11-29T21:19:03.876Z,7.95
2022-11-29T21:21:38.616Z,7.98
2022-11-29T21:24:29.011Z,7.98
2022-11-29T21:26:55.703Z,7.97
2022-11-29T21:29:23.393Z,7.96
2022-11-29T21:31:53.019Z,7.96
2022-11-29T21:34:20.149Z,7.98
2022-11-29T21:36:55.482Z,7.99
2022-11-29T21:39:23.099Z,8.00
2022-11-29T21:41:49.534Z,7.99
2022-11-29T21:44:16.003Z,8.00
2022-11-29T21:46:42.500Z,8.00
2022-11-29T21:49:09.048Z,8.02
2022-11-29T21:51:35.495Z,8.00
2022-11-29T21:54:02.714Z,8.01
2022-11-29T21:56:29.184Z,8.01
2022-11-29T21:58:55.611Z,8.02
2022-11-29T22:01:22.996Z,8.02
2022-11-29T22:03:53.368Z,8.03
2022-11-29T22:06:24.175Z,8.02
2022-11-29T22:08:50.702Z,8.02
2022-11-29T22:11:35.393Z,8.03
2022-11-29T22:14:16.969Z,8.02
2022-11-29T22:16:58.240Z,8.02
2022-11-29T22:19:26.196Z,8.03
2022-11-29T22:21:55.515Z,8.05
2022-11-29T22:24:25.188Z,8.05
2022-11-29T22:26:52.779Z,8.07
2022-11-29T22:29:19.887Z,8.08
2022-11-29T22:31:49.467Z,8.06
2022-11-29T22:34:16.771Z,8.08
2022-11-29T22:36:43.219Z,8.06
2022-11-29T22:39:09.758Z,8.03
2022-11-29T22:41:37.702Z,8.04
2022-11-29T22:44:04.758Z,8.03
2022-11-29T22:46:31.966Z,8.02
2022-11-29T22:49:00.571Z,8.03
2022-11-29T22:51:33.047Z,8.01
2022-11-29T22:54:01.891Z,8.00
2022-11-29T22:56:31.586Z,7.96
2022-11-29T22:58:58.640Z,7.95
2022-11-29T23:01:27.667Z,7.93
2022-11-29T23:03:55.392Z,7.93
2022-11-29T23:06:31.474Z,7.92
2022-11-29T23:09:00.107Z,7.91
2022-11-29T23:11:29.143Z,7.90
2022-11-29T23:13:55.519Z,7.89
2022-11-29T23:16:24.824Z,7.89
2022-11-29T23:18:52.348Z,7.89
2022-11-29T23:21:20.483Z,7.90
2022-11-29T23:23:56.063Z,7.89
2022-11-29T23:26:31.084Z,7.90
2022-11-29T23:29:09.071Z,7.87
2022-11-29T23:31:35.508Z,7.89
2022-11-29T23:34:02.790Z,7.88
2022-11-29T23:36:29.296Z,7.87
2022-11-29T23:38:55.939Z,7.87
2022-11-29T23:41:22.461Z,7.87
2022-11-29T23:43:51.637Z,7.86
2022-11-29T23:46:20.910Z,7.85
2022-11-29T23:48:47.558Z,7.86
2022-11-29T23:51:14.518Z,7.87
2022-11-29T23:53:41.773Z,7.83
2022-11-29T23:56:18.026Z,7.82
2022-11-29T23:58:45.192Z,7.80
